Time;durP1;ratioP1;P1;durP2;ratioP2;P2;SDS_P1;SDS_P2;PMS_P1;PMS_P2;Temp;Humidity;BMP_temperature;BMP_pressure;BME280_temperature;BME280_humidity;BME280_pressure;Samples;Min_cycle;Max_cycle;Signal;HPM_P1;HPM_P2
2021/05/12 00:00:32;;;;;;;1.90;0.70;;;;;;;11.54;61.37;100784.28;1626130;87;21864;-56
2021/05/12 00:03:37;;;;;;;4.87;0.70;;;;;;;11.56;62.50;100789.09;1628692;88;21323;-55
2021/05/12 00:06:43;;;;;;;2.08;0.60;;;;;;;11.55;63.56;100792.84;1626008;87;21243;-56
2021/05/12 00:09:49;;;;;;;0.80;0.70;;;;;;;11.42;65.37;100782.89;1591559;90;21379;-53
2021/05/12 00:12:54;;;;;;;1.20;0.60;;;;;;;11.17;66.70;100792.14;1627647;88;21928;-54
2021/05/12 00:16:00;;;;;;;0.75;0.70;;;;;;;11.05;68.28;100780.64;1591480;90;21290;-56
2021/05/12 00:19:06;;;;;;;2.55;0.82;;;;;;;10.94;69.25;100782.87;1625750;88;21248;-57
2021/05/12 00:22:19;;;;;;;1.95;0.70;;;;;;;10.81;70.17;100783.36;1591399;90;21294;-54
2021/05/12 00:25:19;;;;;;;2.27;0.70;;;;;;;10.75;70.70;100785.38;1625155;88;21196;-54
2021/05/12 00:28:25;;;;;;;0.70;0.70;;;;;;;10.73;71.16;100787.45;1598964;85;21771;-53
2021/05/12 00:31:30;;;;;;;1.15;0.88;;;;;;;10.75;71.53;100785.38;1625195;88;21239;-54
2021/05/12 00:34:35;;;;;;;1.17;0.78;;;;;;;10.77;71.85;100781.09;1598421;89;21725;-53
2021/05/12 00:37:40;;;;;;;2.58;0.90;;;;;;;10.75;71.86;100767.58;1625085;88;21232;-55
2021/05/12 00:40:44;;;;;;;1.05;0.82;;;;;;;10.75;71.93;100781.80;1624755;88;21235;-53
2021/05/12 00:43:50;;;;;;;2.65;1.12;;;;;;;10.76;72.03;100780.27;1624756;87;21259;-54
2021/05/12 00:46:58;;;;;;;1.77;1.42;;;;;;;10.77;72.18;100787.44;1597981;89;21219;-54
2021/05/12 00:50:03;;;;;;;4.12;1.00;;;;;;;10.77;72.49;100779.73;1624662;88;21247;-54
2021/05/12 00:53:08;;;;;;;2.15;1.50;;;;;;;10.74;72.32;100791.02;1625406;88;21268;-54
2021/05/12 00:56:14;;;;;;;4.42;1.02;;;;;;;10.78;72.33;100781.47;1624890;88;21729;-55
2021/05/12 00:59:20;;;;;;;0.88;0.80;;;;;;;10.81;72.21;100778.39;1624873;88;21567;-55
2021/05/12 01:02:27;;;;;;;0.60;0.60;;;;;;;10.82;71.99;100781.46;1624766;88;21356;-56
2021/05/12 01:05:46;;;;;;;0.82;0.60;;;;;;;10.84;71.77;100776.18;1624986;88;21239;-53
2021/05/12 01:08:52;;;;;;;1.47;0.80;;;;;;;10.88;71.49;100789.03;1624624;88;21264;-57
2021/05/12 01:11:58;;;;;;;0.55;0.50;;;;;;;10.89;71.12;100779.27;1625165;88;21233;-55
2021/05/12 01:15:05;;;;;;;1.00;0.62;;;;;;;10.92;70.74;100781.67;1625091;87;21220;-54
2021/05/12 01:18:25;;;;;;;1.90;0.70;;;;;;;10.94;70.40;100784.24;1625176;88;21336;-55
2021/05/12 01:21:30;;;;;;;2.72;0.68;;;;;;;10.95;70.27;100783.20;1625265;87;21831;-56
2021/05/12 01:24:37;;;;;;;0.60;0.60;;;;;;;10.94;70.06;100767.27;1598479;89;21238;-53
2021/05/12 01:27:44;;;;;;;0.95;0.60;;;;;;;10.92;69.60;100769.34;1626595;85;21315;-53
2021/05/12 01:31:06;;;;;;;1.07;0.62;;;;;;;10.93;69.57;100766.07;1593354;90;21211;-55
2021/05/12 01:34:13;;;;;;;1.77;0.78;;;;;;;10.94;69.27;100771.92;1628065;88;21406;-53
2021/05/12 01:37:21;;;;;;;1.10;0.70;;;;;;;10.92;69.18;100769.34;1625806;87;21935;-53
2021/05/12 01:40:27;;;;;;;0.80;0.50;;;;;;;10.94;69.18;100774.66;1626607;88;21212;-56
2021/05/12 01:43:33;;;;;;;0.60;0.60;;;;;;;10.93;69.15;100766.94;1593456;90;21298;-53
2021/05/12 01:46:39;;;;;;;0.90;0.72;;;;;;;10.94;69.09;100765.06;1626153;88;21263;-53
2021/05/12 01:49:46;;;;;;;2.30;0.80;;;;;;;10.91;68.75;100764.04;1628017;88;21769;-54
2021/05/12 01:52:52;;;;;;;1.20;0.60;;;;;;;10.92;68.65;100763.00;1628010;87;21965;-57
2021/05/12 01:55:53;;;;;;;0.53;0.50;;;;;;;10.92;68.50;100762.50;1628629;88;21454;-53
2021/05/12 01:59:00;;;;;;;0.50;0.50;;;;;;;10.94;67.96;100759.59;1627179;87;21267;-56
2021/05/12 02:02:06;;;;;;;0.53;0.50;;;;;;;10.95;67.87;100754.45;1627843;87;21367;-57
2021/05/12 02:05:15;;;;;;;0.62;0.50;;;;;;;10.93;67.59;100757.35;1593397;90;21330;-58
2021/05/12 02:08:22;;;;;;;0.93;0.50;;;;;;;10.94;67.44;100754.11;1627985;88;21264;-56
2021/05/12 02:11:27;;;;;;;0.75;0.60;;;;;;;10.95;67.38;100759.92;1626997;87;21759;-56
2021/05/12 02:14:26;;;;;;;1.70;0.62;;;;;;;10.96;67.22;100753.41;1627178;87;21243;-56
2021/05/12 02:17:33;;;;;;;0.60;0.60;;;;;;;10.95;67.13;100768.14;1593369;90;21628;-54
2021/05/12 02:20:41;;;;;;;0.60;0.60;;;;;;;10.94;67.00;100762.33;1625701;87;21233;-55
2021/05/12 02:23:46;;;;;;;0.55;0.55;;;;;;;10.93;67.11;100768.31;1593416;90;21254;-55
2021/05/12 02:26:52;;;;;;;2.08;1.00;;;;;;;10.94;67.06;100776.02;1626158;87;21292;-54
2021/05/12 02:30:01;;;;;;;1.30;0.85;;;;;;;10.96;67.06;100776.69;1627745;84;21784;-54
2021/05/12 02:33:05;;;;;;;1.77;1.32;;;;;;;10.96;67.16;100778.92;1625413;88;21260;-54
2021/05/12 02:36:12;;;;;;;1.07;0.70;;;;;;;10.97;67.27;100779.29;1625841;88;21248;-53
2021/05/12 02:39:17;;;;;;;1.30;0.80;;;;;;;10.98;67.32;100770.54;1626599;87;21299;-56
2021/05/12 02:42:25;;;;;;;0.88;0.82;;;;;;;11.01;67.32;100764.72;1625902;88;21263;-54
2021/05/12 02:45:31;;;;;;;2.15;0.65;;;;;;;11.05;67.30;100764.20;1625527;88;21217;-54
2021/05/12 02:48:36;;;;;;;1.20;0.75;;;;;;;11.10;67.22;100765.09;1625443;88;21263;-54
2021/05/12 02:51:44;;;;;;;0.93;0.70;;;;;;;11.10;66.96;100763.19;1627442;87;21229;-53
2021/05/12 02:54:50;;;;;;;0.60;0.60;;;;;;;11.08;67.00;100764.40;1625239;87;21618;-53
2021/05/12 02:57:55;;;;;;;0.90;0.70;;;;;;;11.11;67.14;100769.53;1626331;88;21255;-53
2021/05/12 03:01:03;;;;;;;1.98;0.50;;;;;;;11.18;67.25;100778.80;1626166;87;21232;-56
2021/05/12 03:04:10;;;;;;;0.65;0.40;;;;;;;11.26;67.01;100774.16;1625582;88;21342;-55
2021/05/12 03:07:16;;;;;;;1.98;0.90;;;;;;;11.33;66.99;100780.69;1625871;88;21879;-55
2021/05/12 03:10:25;;;;;;;1.47;0.82;;;;;;;11.38;66.20;100778.80;1625881;88;21303;-53
2021/05/12 03:13:30;;;;;;;2.20;0.70;;;;;;;11.35;66.07;100782.72;1626192;87;21308;-53
2021/05/12 03:16:36;;;;;;;1.87;0.70;;;;;;;11.40;65.98;100783.61;1625591;88;21227;-54
2021/05/12 03:19:43;;;;;;;1.25;0.93;;;;;;;11.41;65.85;100779.83;1625770;88;21308;-57
2021/05/12 03:22:49;;;;;;;2.00;0.72;;;;;;;11.46;65.92;100781.03;1625865;88;21323;-54
2021/05/12 03:25:55;;;;;;;1.82;0.40;;;;;;;11.52;65.67;100777.60;1626492;87;21251;-56
2021/05/12 03:29:01;;;;;;;0.50;0.50;;;;;;;11.55;65.60;100762.67;1625911;88;21263;-54
2021/05/12 03:32:07;;;;;;;0.50;0.50;;;;;;;11.56;65.51;100765.25;1626789;87;21832;-52
2021/05/12 03:35:13;;;;;;;1.40;0.80;;;;;;;11.62;65.51;100771.94;1593441;90;21299;-54
2021/05/12 03:38:19;;;;;;;1.40;0.95;;;;;;;11.69;65.69;100773.84;1624881;87;21867;-53
2021/05/12 03:41:24;;;;;;;1.00;0.90;;;;;;;11.76;65.52;100772.13;1626805;87;21237;-55
2021/05/12 03:44:31;;;;;;;5.20;1.07;;;;;;;11.81;65.79;100779.83;1627709;88;21228;-54
2021/05/12 03:47:37;;;;;;;0.75;0.50;;;;;;;11.81;65.93;100779.83;1626646;87;21350;-54
2021/05/12 03:50:43;;;;;;;0.72;0.62;;;;;;;11.82;66.15;100781.53;1594145;90;21243;-55
2021/05/12 03:53:51;;;;;;;0.65;0.65;;;;;;;11.88;66.03;100780.83;1626114;87;21283;-55
2021/05/12 03:56:58;;;;;;;0.70;0.70;;;;;;;11.88;66.00;100774.84;1627532;88;21887;-56
2021/05/12 04:00:03;;;;;;;2.15;0.80;;;;;;;11.85;66.10;100775.19;1593943;90;21250;-58
2021/05/12 04:03:12;;;;;;;1.00;0.90;;;;;;;11.86;66.10;100781.54;1628333;88;21378;-56
2021/05/12 04:06:18;;;;;;;1.65;1.10;;;;;;;11.83;66.01;100777.24;1628223;88;21370;-54
2021/05/12 04:09:24;;;;;;;1.40;1.05;;;;;;;11.80;66.34;100787.70;1593784;90;21247;-53
2021/05/12 04:12:31;;;;;;;1.47;1.22;;;;;;;11.84;67.05;100789.91;1627717;88;21366;-53
2021/05/12 04:15:37;;;;;;;4.65;1.50;;;;;;;11.94;67.42;100785.61;1593799;90;21263;-56
2021/05/12 04:18:42;;;;;;;1.52;1.10;;;;;;;12.04;67.39;100783.54;1626525;87;21323;-55
2021/05/12 04:21:49;;;;;;;1.70;1.40;;;;;;;12.14;67.35;100777.85;1626367;88;21239;-55
2021/05/12 04:24:58;;;;;;;1.80;1.50;;;;;;;12.25;66.79;100783.83;1628279;88;21382;-56
2021/05/12 04:28:04;;;;;;;1.75;1.50;;;;;;;12.32;66.56;100775.20;1628365;87;21434;-56
2021/05/12 04:31:10;;;;;;;2.02;1.80;;;;;;;12.38;66.54;100782.76;1594424;87;21309;-54
2021/05/12 04:34:17;;;;;;;4.37;2.10;;;;;;;12.45;66.45;100785.11;1624166;88;21287;-57
2021/05/12 04:37:24;;;;;;;3.92;2.10;;;;;;;12.48;66.06;100782.55;1595946;89;21286;-54
2021/05/12 04:40:31;;;;;;;2.45;1.90;;;;;;;12.47;65.65;100784.42;1625308;88;21300;-54
2021/05/12 04:43:36;;;;;;;2.50;1.90;;;;;;;12.46;65.74;100779.11;1625759;88;21280;-54
2021/05/12 04:46:44;;;;;;;7.17;2.35;;;;;;;12.50;65.69;100794.19;1626331;88;21296;-55
2021/05/12 04:49:52;;;;;;;6.00;1.90;;;;;;;12.54;65.71;100786.78;1621332;88;21240;-54
2021/05/12 04:52:57;;;;;;;2.77;1.90;;;;;;;12.62;65.70;100792.78;1626607;88;21307;-58
2021/05/12 04:56:04;;;;;;;3.22;1.90;;;;;;;12.63;65.28;100782.11;1626355;88;21628;-53
2021/05/12 04:59:11;;;;;;;3.92;2.20;;;;;;;12.62;65.20;100788.11;1595803;90;21457;-57
2021/05/12 05:02:17;;;;;;;3.50;1.87;;;;;;;12.64;64.91;100786.05;1624538;88;21283;-58
2021/05/12 05:05:28;;;;;;;2.98;1.90;;;;;;;12.70;64.76;100796.86;1626187;88;21295;-57
2021/05/12 05:08:35;;;;;;;4.83;2.35;;;;;;;12.76;64.81;100796.13;1624253;88;21721;-57
2021/05/12 05:11:42;;;;;;;3.60;2.12;;;;;;;12.79;64.31;100792.52;1626852;88;21367;-55
2021/05/12 05:14:55;;;;;;;3.60;1.50;;;;;;;12.85;64.28;100787.66;1595907;90;21282;-61
2021/05/12 05:18:00;;;;;;;4.83;2.05;;;;;;;13.04;63.86;100784.48;1624923;88;21251;-58
2021/05/12 05:21:10;;;;;;;8.93;2.77;;;;;;;13.14;63.18;100796.11;1625015;88;21734;-60
2021/05/12 05:24:16;;;;;;;4.37;1.95;;;;;;;13.33;63.10;100788.72;1625234;88;21371;-57
2021/05/12 05:27:24;;;;;;;6.05;2.05;;;;;;;13.50;62.38;100787.58;1628483;88;21771;-59
2021/05/12 05:30:35;;;;;;;2.47;2.15;;;;;;;13.68;62.31;100790.00;1641957;87;21209;-59
2021/05/12 05:34:00;;;;;;;2.20;1.70;;;;;;;13.69;60.98;100798.58;1642494;86;21245;-58
2021/05/12 05:37:25;;;;;;;3.12;1.80;;;;;;;13.60;60.77;100791.95;1628003;88;21299;-55
2021/05/12 05:40:50;;;;;;;4.53;1.95;;;;;;;13.50;61.13;100794.45;1627569;88;21279;-56
2021/05/12 05:44:15;;;;;;;3.20;1.65;;;;;;;13.34;60.93;100797.84;1595225;90;21293;-53
2021/05/12 05:47:40;;;;;;;6.90;2.27;;;;;;;13.22;60.75;100804.27;1606103;89;21254;-59
2021/05/12 05:51:05;;;;;;;4.25;1.80;;;;;;;13.12;60.99;100797.31;1628925;88;21910;-55
2021/05/12 05:54:32;;;;;;;7.75;2.05;;;;;;;13.05;60.88;100798.55;1628996;88;21243;-56
2021/05/12 05:58:00;;;;;;;3.12;2.10;;;;;;;12.92;61.19;100796.87;1642756;87;21285;-57
2021/05/12 06:01:13;;;;;;;5.60;2.10;;;;;;;12.87;61.54;100803.46;1618818;87;21307;-57
2021/05/12 06:04:20;;;;;;;4.35;1.80;;;;;;;12.78;61.61;100801.77;1626676;88;21773;-56
2021/05/12 06:07:41;;;;;;;2.42;1.75;;;;;;;12.75;62.15;100811.75;1566981;91;21411;-58
2021/05/12 06:11:09;;;;;;;3.42;1.47;;;;;;;12.85;62.30;100800.03;1597834;90;21236;-57
2021/05/12 06:14:32;;;;;;;4.75;1.60;;;;;;;12.97;61.83;100801.31;1629064;86;21259;-57
2021/05/12 06:18:01;;;;;;;8.58;1.85;;;;;;;12.99;61.27;100799.25;1638765;86;21241;-54
2021/05/12 06:21:28;;;;;;;6.25;1.82;;;;;;;12.97;61.08;100796.36;1642340;86;21758;-55
2021/05/12 06:24:51;;;;;;;4.40;1.82;;;;;;;12.92;61.53;100800.16;1627558;86;21223;-53
2021/05/12 06:28:19;;;;;;;3.37;1.50;;;;;;;12.90;61.36;100798.98;1626341;86;21248;-54
2021/05/12 06:31:42;;;;;;;3.35;1.50;;;;;;;13.00;61.41;100803.73;1622413;88;21251;-54
2021/05/12 06:35:08;;;;;;;5.17;1.67;;;;;;;13.17;61.33;100794.88;1553790;87;21266;-55
2021/05/12 06:38:30;;;;;;;11.08;1.67;;;;;;;13.45;60.63;100795.52;1621681;88;21263;-55
2021/05/12 06:41:37;;;;;;;2.67;1.35;;;;;;;13.64;59.64;100801.56;1627383;88;21824;-56
2021/05/12 06:44:43;;;;;;;3.22;1.90;;;;;;;13.72;59.48;100798.72;1642232;87;21213;-59
2021/05/12 06:47:53;;;;;;;4.40;2.00;;;;;;;13.71;58.90;100802.52;1626776;88;21251;-60
2021/05/12 06:50:56;;;;;;;4.40;1.90;;;;;;;13.61;58.72;100798.65;1627680;86;21257;-57
2021/05/12 06:54:01;;;;;;;9.50;2.17;;;;;;;13.53;59.06;100803.70;1629174;86;21231;-55
2021/05/12 09:19:17;;;;;;;2.70;1.92;;;;;;;16.67;51.11;100697.70;1634303;82;21204;-59
2021/05/12 09:22:23;;;;;;;4.78;2.17;;;;;;;16.56;51.02;100678.95;1614107;88;21263;-59
2021/05/12 09:25:30;;;;;;;3.85;1.80;;;;;;;16.57;50.47;100677.05;1594195;88;21258;-59
2021/05/12 09:28:36;;;;;;;4.78;2.20;;;;;;;16.55;49.14;100668.97;1613796;88;21449;-56
2021/05/12 09:31:46;;;;;;;3.35;2.02;;;;;;;16.43;49.34;100660.90;1623439;88;21232;-58
2021/05/12 09:35:10;;;;;;;3.17;1.50;;;;;;;16.33;49.55;100665.98;1623929;88;21356;-57
2021/05/12 09:38:28;;;;;;;3.47;1.95;;;;;;;16.13;49.39;100659.48;1624083;88;21255;-61
2021/05/12 09:41:43;;;;;;;3.47;1.90;;;;;;;16.05;50.19;100658.28;1625138;86;21203;-57
2021/05/12 09:44:51;;;;;;;7.33;1.90;;;;;;;16.18;50.52;100664.73;1624872;88;21255;-61
2021/05/12 09:48:06;;;;;;;10.23;1.92;;;;;;;16.25;49.38;100655.10;1633634;88;21312;-60
2021/05/12 09:51:24;;;;;;;3.17;1.57;;;;;;;16.28;49.98;100661.05;1602735;88;21310;-59
2021/05/12 09:54:32;;;;;;;4.50;1.90;;;;;;;16.39;49.36;100650.78;1625131;88;21267;-62
2021/05/12 09:57:40;;;;;;;2.52;1.65;;;;;;;16.38;47.96;100650.98;1625318;87;21642;-59
2021/05/12 10:00:55;;;;;;;3.10;1.62;;;;;;;16.32;48.04;100654.59;1625627;87;21248;-57
2021/05/12 10:04:02;;;;;;;4.47;2.00;;;;;;;16.25;48.28;100654.55;1622927;88;22098;-61
2021/05/12 10:07:25;;;;;;;4.08;1.95;;;;;;;16.32;48.83;100655.45;1623361;87;21294;-59
2021/05/12 10:10:45;;;;;;;3.60;1.75;;;;;;;16.43;49.35;100643.80;1601291;87;21599;-60
2021/05/12 10:13:52;;;;;;;2.95;1.45;;;;;;;16.60;49.09;100640.18;1611651;88;21224;-57
2021/05/12 10:16:58;;;;;;;2.98;1.47;;;;;;;16.72;48.74;100655.60;1623455;88;21764;-61
2021/05/12 10:20:03;;;;;;;2.27;1.45;;;;;;;16.67;50.29;100674.72;1619249;88;21231;-57
2021/05/12 10:23:11;;;;;;;1.85;1.55;;;;;;;16.35;52.03;100667.47;1623887;88;21222;-58
2021/05/12 10:26:15;;;;;;;6.58;1.82;;;;;;;16.19;53.29;100655.38;1624842;88;21231;-58
2021/05/12 10:29:23;;;;;;;9.18;1.80;;;;;;;16.26;54.19;100645.23;1622841;88;21231;-56
2021/05/12 10:32:40;;;;;;;5.55;1.98;;;;;;;16.58;53.73;100643.67;1612109;89;21415;-58
2021/05/12 10:35:48;;;;;;;6.17;2.10;;;;;;;16.99;53.03;100627.80;1623713;88;21206;-63
2021/05/12 10:38:56;;;;;;;3.62;1.77;;;;;;;17.27;53.76;100622.91;1611964;89;21277;-57
2021/05/12 10:42:04;;;;;;;3.35;2.00;;;;;;;17.26;54.21;100613.44;1624314;88;21731;-58
2021/05/12 10:45:16;;;;;;;2.47;1.95;;;;;;;17.30;54.75;100611.41;1595339;90;21799;-60
2021/05/12 10:48:46;;;;;;;3.47;2.40;;;;;;;17.44;54.59;100611.74;1613192;89;21739;-59
2021/05/12 10:51:58;;;;;;;4.60;2.12;;;;;;;17.46;52.80;100611.00;1624724;88;21226;-61
2021/05/12 10:55:02;;;;;;;6.10;2.27;;;;;;;17.27;51.19;100602.67;1581476;89;21235;-58
2021/05/12 10:58:21;;;;;;;4.90;1.87;;;;;;;17.12;50.20;100599.29;1624927;88;21274;-60
2021/05/12 11:01:28;;;;;;;7.25;3.33;;;;;;;17.08;50.21;100588.31;1624842;88;21600;-56
2021/05/12 11:04:35;;;;;;;7.40;2.65;;;;;;;17.10;49.93;100594.49;1606661;89;21282;-58
2021/05/12 11:07:45;;;;;;;2.70;2.02;;;;;;;17.25;50.43;100589.61;1621769;88;21234;-58
2021/05/12 11:11:00;;;;;;;5.25;2.45;;;;;;;17.57;50.04;100593.73;1599736;89;21786;-59
2021/05/12 11:14:34;;;;;;;3.27;1.77;;;;;;;17.76;48.73;100598.91;1624130;88;21255;-57
2021/05/12 11:17:53;;;;;;;3.98;1.95;;;;;;;18.02;48.50;100591.91;1609193;88;21234;-60
2021/05/12 11:21:28;;;;;;;6.95;2.37;;;;;;;18.42;47.48;100584.30;1610896;88;21798;-59
2021/05/12 11:24:33;;;;;;;4.53;1.60;;;;;;;18.44;46.15;100571.90;1608515;88;21755;-57
2021/05/12 11:34:11;;;;;;;4.15;1.67;;;;;;;18.99;44.32;100573.89;1618425;86;21235;-57
2021/05/12 11:37:23;;;;;;;2.72;1.17;;;;;;;19.40;44.06;100568.30;1606225;88;21919;-59
2021/05/12 11:40:31;;;;;;;5.50;1.82;;;;;;;19.65;43.90;100571.36;1623935;86;21271;-57
2021/05/12 11:43:49;;;;;;;4.97;2.17;;;;;;;19.73;41.84;100558.55;1634534;88;21335;-59
2021/05/12 11:46:55;;;;;;;4.53;2.37;;;;;;;19.82;42.63;100556.33;1635459;87;21226;-59
2021/05/12 11:50:04;;;;;;;8.08;2.95;;;;;;;20.05;41.90;100552.30;1615301;88;21219;-57
2021/05/12 11:53:11;;;;;;;8.40;3.40;;;;;;;20.30;41.07;100551.66;1623721;88;21827;-60
2021/05/12 11:56:12;;;;;;;3.40;1.87;;;;;;;20.50;39.88;100547.52;1633361;86;21245;-62
2021/05/12 11:59:18;;;;;;;5.65;2.17;;;;;;;20.55;39.06;100544.05;1602088;88;21256;-58
2021/05/12 12:02:29;;;;;;;5.25;2.25;;;;;;;20.14;40.33;100548.13;1622697;88;21248;-63
2021/05/12 12:05:55;;;;;;;3.50;1.92;;;;;;;19.83;40.78;100553.32;1622535;88;21629;-62
2021/05/12 12:08:52;;;;;;;4.25;2.08;;;;;;;19.50;41.24;100555.62;1623336;88;21244;-60
2021/05/12 12:12:01;;;;;;;5.75;2.15;;;;;;;19.15;41.78;100547.48;1615367;88;21201;-62
2021/05/12 12:15:19;;;;;;;3.45;2.00;;;;;;;18.81;42.40;100536.88;1624279;88;21753;-58
2021/05/12 12:18:42;;;;;;;3.83;2.05;;;;;;;18.67;43.12;100535.28;1597540;88;21396;-61
2021/05/12 12:21:51;;;;;;;5.72;2.22;;;;;;;18.65;43.08;100528.58;1604072;88;21254;-62
2021/05/12 12:24:57;;;;;;;8.40;2.58;;;;;;;18.72;42.02;100521.59;1624564;85;21606;-60
2021/05/12 12:28:02;;;;;;;6.35;2.60;;;;;;;18.63;42.63;100535.44;1637279;86;21253;-64
2021/05/12 12:31:07;;;;;;;10.50;3.60;;;;;;;18.46;42.79;100528.17;1621575;87;21717;-62
2021/05/12 12:34:31;;;;;;;9.40;2.10;;;;;;;18.33;42.75;100532.37;1627990;87;21243;-62
2021/05/12 12:37:42;;;;;;;3.37;1.90;;;;;;;18.11;43.39;100529.63;1637806;87;21746;-63
2021/05/12 12:40:53;;;;;;;4.30;1.65;;;;;;;17.93;43.78;100535.06;1611999;89;21846;-65
2021/05/12 12:43:59;;;;;;;9.53;2.15;;;;;;;17.83;43.88;100534.66;1600636;89;21767;-61
2021/05/12 12:47:13;;;;;;;3.58;2.20;;;;;;;17.76;43.90;100525.52;1600798;89;21405;-63
2021/05/12 12:50:16;;;;;;;8.05;2.77;;;;;;;17.68;43.67;100518.31;1612033;89;21257;-59
2021/05/12 12:53:29;;;;;;;4.45;2.52;;;;;;;17.72;43.26;100511.81;1611784;89;21264;-59
2021/05/12 12:56:33;;;;;;;4.42;2.22;;;;;;;17.96;43.74;100497.22;1616230;87;21269;-62
2021/05/12 12:59:39;;;;;;;4.30;2.42;;;;;;;18.37;42.83;100485.14;1626045;87;21309;-62
2021/05/12 13:02:49;;;;;;;6.62;2.52;;;;;;;18.78;42.03;100488.79;1626219;87;21574;-62
2021/05/12 13:06:02;;;;;;;3.98;2.25;;;;;;;19.27;40.79;100489.61;1599244;89;21311;-63
2021/05/12 13:09:09;;;;;;;3.20;2.40;;;;;;;19.64;39.83;100478.54;1601016;89;21311;-62
2021/05/12 13:12:15;;;;;;;6.33;2.80;;;;;;;19.85;39.54;100475.28;1601358;89;21816;-58
2021/05/12 13:15:28;;;;;;;9.68;3.17;;;;;;;20.01;38.85;100470.48;1600609;89;21267;-63
2021/05/12 13:18:40;;;;;;;4.80;2.27;;;;;;;19.85;38.62;100466.95;1614813;87;21267;-59
2021/05/12 13:21:59;;;;;;;6.20;2.92;;;;;;;19.95;38.99;100461.13;1627217;87;21728;-61
2021/05/12 13:25:16;;;;;;;5.12;2.83;;;;;;;20.18;38.47;100468.76;1623089;86;21919;-63
2021/05/12 13:28:22;;;;;;;4.25;2.83;;;;;;;20.28;38.07;100466.27;1621453;88;21274;-62
2021/05/12 13:31:29;;;;;;;6.20;2.87;;;;;;;20.44;37.64;100462.78;1624569;88;21231;-60
2021/05/12 13:34:38;;;;;;;3.62;2.25;;;;;;;20.81;37.82;100436.48;1623427;88;21622;-63
2021/05/12 13:37:46;;;;;;;8.35;2.67;;;;;;;20.75;37.19;100462.50;1623349;88;21662;-64
2021/05/12 13:40:52;;;;;;;4.15;2.08;;;;;;;20.39;38.07;100475.19;1595527;89;21274;-61
2021/05/12 13:43:58;;;;;;;9.20;2.70;;;;;;;20.15;38.86;100471.45;1588767;90;21532;-63
2021/05/12 13:47:13;;;;;;;5.53;2.02;;;;;;;20.03;38.82;100472.45;1648658;87;21243;-61
2021/05/12 13:50:31;;;;;;;4.50;2.15;;;;;;;19.96;38.92;100459.21;1623645;88;21239;-61
2021/05/12 13:53:38;;;;;;;4.35;1.92;;;;;;;19.83;38.44;100473.27;1623234;88;21262;-60
2021/05/12 14:00:15;;;;;;;3.60;2.17;;;;;;;19.36;38.89;100460.19;1625331;88;21270;-60
2021/05/12 14:03:11;;;;;;;3.85;2.47;;;;;;;19.32;39.63;100451.47;1625206;88;21303;-61
2021/05/12 14:06:25;;;;;;;4.67;2.12;;;;;;;19.32;38.92;100440.36;1624859;87;22097;-62
2021/05/12 14:09:28;;;;;;;4.97;1.87;;;;;;;19.26;39.83;100445.42;1625068;88;21282;-61
2021/05/12 14:12:39;;;;;;;4.22;2.08;;;;;;;19.28;39.96;100446.91;1625346;88;21286;-62
2021/05/12 14:18:53;;;;;;;5.12;3.00;;;;;;;18.87;41.50;100453.60;1623774;88;21286;-60
2021/05/12 14:22:00;;;;;;;3.30;2.40;;;;;;;18.40;42.89;100447.83;1598330;89;21271;-54
2021/05/12 14:25:07;;;;;;;5.12;2.75;;;;;;;18.00;44.31;100446.38;1601092;85;21255;-56
2021/05/12 14:28:12;;;;;;;4.17;2.75;;;;;;;17.67;45.27;100449.31;1621424;88;21240;-56
2021/05/12 14:31:19;;;;;;;4.72;2.60;;;;;;;17.35;46.15;100440.04;1629037;88;21251;-53
2021/05/12 14:34:25;;;;;;;6.00;2.72;;;;;;;17.09;47.14;100436.51;1639212;86;21250;-54
2021/05/12 14:37:30;;;;;;;7.05;2.80;;;;;;;16.86;47.53;100440.25;1626942;86;21236;-53
2021/05/12 14:40:35;;;;;;;4.58;3.20;;;;;;;16.66;48.48;100447.73;1628648;88;21235;-59
2021/05/12 14:43:40;;;;;;;5.40;3.65;;;;;;;16.38;50.14;100449.28;1625871;88;21624;-56
2021/05/12 14:46:45;;;;;;;7.33;2.70;;;;;;;16.01;52.02;100442.98;1628618;88;21807;-56
2021/05/12 14:49:53;;;;;;;5.17;2.45;;;;;;;15.67;53.01;100435.66;1627364;88;21236;-59
2021/05/12 14:53:01;;;;;;;4.50;2.87;;;;;;;15.44;53.84;100450.34;1642372;87;21784;-60
2021/05/12 14:59:43;;;;;;;3.72;2.92;;;;;;;15.17;56.68;100455.36;1594495;89;21255;-58
2021/05/12 15:08:58;;;;;;;7.28;3.45;;;;;;;14.87;60.99;100451.97;1620747;88;21776;-58
2021/05/12 15:12:04;;;;;;;6.35;3.52;;;;;;;14.64;61.85;100454.67;1624892;88;21840;-58
2021/05/12 15:15:09;;;;;;;5.22;3.60;;;;;;;14.46;62.63;100452.95;1608759;89;21358;-58
2021/05/12 15:18:15;;;;;;;6.35;4.12;;;;;;;14.32;63.23;100452.48;1608569;88;21265;-58
2021/05/12 15:21:21;;;;;;;5.72;4.28;;;;;;;14.22;63.82;100451.95;1627004;88;21216;-59
2021/05/12 15:24:26;;;;;;;5.15;4.10;;;;;;;14.10;65.04;100449.38;1627293;88;21607;-59
2021/05/12 15:27:35;;;;;;;4.78;3.75;;;;;;;14.03;65.62;100445.73;1628418;85;21590;-58
2021/05/12 15:30:42;;;;;;;5.83;3.22;;;;;;;13.97;65.36;100444.59;1626539;88;21224;-57
2021/05/12 15:33:47;;;;;;;4.45;3.85;;;;;;;13.96;65.45;100439.30;1627688;88;21291;-58
2021/05/12 15:36:53;;;;;;;5.12;4.40;;;;;;;13.98;65.66;100438.06;1626767;88;21401;-58
2021/05/12 15:39:59;;;;;;;6.35;4.47;;;;;;;14.00;65.57;100430.98;1638795;87;21233;-58
2021/05/12 15:43:04;;;;;;;7.10;4.78;;;;;;;14.00;66.12;100421.35;1625948;87;21251;-57
2021/05/12 15:46:10;;;;;;;4.45;3.80;;;;;;;14.03;66.54;100423.20;1627757;87;21224;-58
2021/05/12 15:49:17;;;;;;;4.65;3.33;;;;;;;14.04;66.56;100421.27;1627708;88;21440;-57
2021/05/12 15:52:22;;;;;;;6.30;3.17;;;;;;;14.06;66.56;100415.05;1639060;87;21234;-58
2021/05/12 15:55:27;;;;;;;3.60;2.70;;;;;;;14.06;66.38;100413.67;1639076;87;21380;-57
2021/05/12 15:58:32;;;;;;;3.90;3.27;;;;;;;14.07;66.50;100411.23;1639047;87;21494;-56
2021/05/12 16:01:38;;;;;;;4.17;3.17;;;;;;;14.05;66.27;100414.73;1627352;88;21401;-57
2021/05/12 16:04:43;;;;;;;4.30;2.80;;;;;;;14.04;66.37;100407.51;1638431;87;21239;-58
2021/05/12 16:07:50;;;;;;;3.60;2.33;;;;;;;14.03;66.47;100413.56;1626994;86;21315;-57
2021/05/12 16:10:56;;;;;;;3.15;2.12;;;;;;;14.00;66.94;100407.59;1625837;87;21304;-57
2021/05/12 16:14:04;;;;;;;3.52;2.47;;;;;;;13.93;66.85;100406.66;1627473;87;21394;-57
2021/05/12 16:17:12;;;;;;;3.47;2.12;;;;;;;13.89;67.58;100409.50;1630868;86;21220;-57
2021/05/12 16:20:18;;;;;;;3.92;2.55;;;;;;;13.90;67.23;100400.18;1653634;86;21248;-57
2021/05/12 16:23:23;;;;;;;4.53;3.02;;;;;;;13.92;66.63;100403.05;1655049;86;21244;-57
2021/05/12 16:26:29;;;;;;;3.90;3.25;;;;;;;13.95;66.80;100404.58;1635958;87;21441;-56
2021/05/12 16:29:36;;;;;;;3.58;3.08;;;;;;;14.01;67.05;100398.27;1627106;84;21284;-56
2021/05/12 16:32:42;;;;;;;6.92;3.27;;;;;;;14.06;67.25;100398.54;1624226;88;21769;-55
2021/05/12 16:35:48;;;;;;;4.92;3.17;;;;;;;14.09;67.23;100407.26;1626228;88;21381;-56
2021/05/12 16:38:54;;;;;;;4.65;3.27;;;;;;;13.87;67.54;100413.82;1626292;88;21378;-57
2021/05/12 16:41:59;;;;;;;4.47;3.20;;;;;;;13.77;68.18;100414.66;1626173;88;21422;-56
2021/05/12 16:45:05;;;;;;;6.15;3.50;;;;;;;13.73;68.87;100415.25;1626333;88;21392;-58
2021/05/12 16:48:12;;;;;;;7.30;3.10;;;;;;;13.69;69.17;100423.55;1626277;88;21453;-57
2021/05/12 16:51:18;;;;;;;9.08;3.25;;;;;;;13.65;69.45;100415.37;1626991;87;21394;-57
2021/05/12 16:54:23;;;;;;;6.05;3.70;;;;;;;13.61;69.51;100421.77;1638539;87;21542;-58
2021/05/12 16:57:30;;;;;;;8.93;5.10;;;;;;;13.42;69.91;100420.50;1626447;88;21249;-56
2021/05/12 17:00:36;;;;;;;7.65;5.30;;;;;;;13.30;70.66;100418.45;1601552;89;21303;-57
2021/05/12 17:03:41;;;;;;;10.35;5.17;;;;;;;13.17;71.05;100420.51;1601393;89;21759;-57
2021/05/12 17:06:49;;;;;;;5.87;4.17;;;;;;;13.13;71.72;100419.17;1601888;89;21398;-57
2021/05/12 17:09:56;;;;;;;9.58;4.97;;;;;;;13.02;72.08;100414.16;1600971;89;21271;-56
2021/05/12 17:13:05;;;;;;;11.43;5.17;;;;;;;12.87;72.34;100416.05;1600952;89;21484;-56
2021/05/12 17:16:14;;;;;;;11.85;6.55;;;;;;;12.69;72.94;100417.44;1601314;89;21417;-58
2021/05/12 17:19:18;;;;;;;8.15;4.60;;;;;;;12.59;73.50;100412.22;1612775;89;21340;-57
2021/05/12 17:22:26;;;;;;;7.62;3.40;;;;;;;12.59;73.70;100413.59;1602665;89;21418;-57